createdAt,value
2022-10-22T00:00:44.563Z,101697.63
2022-10-22T00:03:12.479Z,101694.97
2022-10-22T00:05:40.348Z,101694.06
2022-10-22T00:08:07.929Z,101692.28
2022-10-22T00:10:38.094Z,101698.47
2022-10-22T00:13:05.716Z,101694.06
2022-10-22T00:15:33.668Z,101685.28
2022-10-22T00:18:01.150Z,101686.03
2022-10-22T00:20:28.677Z,101685.06
2022-10-22T00:22:56.140Z,101681.56
2022-10-22T00:25:23.653Z,101679.69
2022-10-22T00:27:51.338Z,101681.31
2022-10-22T00:30:19.316Z,101679.53
2022-10-22T00:32:46.917Z,101675.09
2022-10-22T00:35:14.656Z,101678.66
2022-10-22T00:37:42.073Z,101676.03
2022-10-22T00:40:10.462Z,101678.75
2022-10-22T00:42:38.362Z,101669.91
2022-10-22T00:45:11.773Z,101669.22
2022-10-22T00:47:43.427Z,101659.66
2022-10-22T00:50:27.139Z,101668.53
2022-10-22T00:52:56.362Z,101656.25
2022-10-22T00:55:25.697Z,101659.81
2022-10-22T00:57:55.768Z,101665.78
2022-10-22T01:00:24.157Z,101669.44
2022-10-22T01:02:53.572Z,101667.44
2022-10-22T01:05:21.728Z,101655.94
2022-10-22T01:07:52.158Z,101666.50
2022-10-22T01:10:31.587Z,101650.75
2022-10-22T01:13:22.113Z,101654.38
2022-10-22T01:16:04.542Z,101656.09
2022-10-22T01:18:41.744Z,101671.78
2022-10-22T01:21:19.026Z,101661.22
2022-10-22T01:24:08.102Z,101654.31
2022-10-22T01:27:12.584Z,101663.31
2022-10-22T01:29:40.264Z,101659.97
2022-10-22T01:32:22.511Z,101659.09
2022-10-22T01:35:00.311Z,101651.19
2022-10-22T01:37:32.953Z,101654.69
2022-10-22T01:40:01.637Z,101646.88
2022-10-22T01:42:29.331Z,101645.78
2022-10-22T01:44:56.851Z,101650.22
2022-10-22T01:48:01.057Z,101637.06
2022-10-22T01:50:28.502Z,101641.66
2022-10-22T01:53:12.009Z,101644.22
2022-10-22T01:56:06.702Z,101645.16
2022-10-22T01:58:36.980Z,101640.78
2022-10-22T02:01:26.153Z,101642.44
2022-10-22T02:04:20.415Z,101653.00
2022-10-22T02:06:52.670Z,101640.19
2022-10-22T02:09:24.267Z,101635.78
2022-10-22T02:11:52.787Z,101643.59
2022-10-22T02:14:21.745Z,101633.28
2022-10-22T02:16:50.824Z,101639.81
2022-10-22T02:19:30.780Z,101635.38
2022-10-22T02:21:58.200Z,101632.91
2022-10-22T02:24:26.023Z,101633.19
2022-10-22T02:27:19.888Z,101627.09
2022-10-22T02:29:49.125Z,101632.34
2022-10-22T02:32:21.632Z,101635.00
2022-10-22T02:34:51.156Z,101633.59
2022-10-22T02:37:19.230Z,101637.25
2022-10-22T02:39:47.163Z,101628.63
2022-10-22T02:42:15.332Z,101627.06
2022-10-22T02:44:43.924Z,101625.50
2022-10-22T02:47:11.364Z,101630.06
2022-10-22T02:49:38.779Z,101635.75
2022-10-22T02:52:06.271Z,101634.19
2022-10-22T02:54:34.106Z,101630.69
2022-10-22T02:57:01.709Z,101621.16
2022-10-22T02:59:33.336Z,101622.78
2022-10-22T03:02:01.022Z,101629.91
2022-10-22T03:04:28.649Z,101625.75
2022-10-22T03:06:56.598Z,101625.00
2022-10-22T03:09:24.980Z,101630.31
2022-10-22T03:11:52.764Z,101622.56
2022-10-22T03:14:20.515Z,101619.06
2022-10-22T03:16:48.150Z,101620.25
2022-10-22T03:19:15.860Z,101612.78
2022-10-22T03:21:52.616Z,101614.63
2022-10-22T03:24:26.125Z,101611.41
2022-10-22T03:26:53.632Z,101609.59
2022-10-22T03:29:23.866Z,101614.13
2022-10-22T03:31:52.348Z,101613.38
2022-10-22T03:34:20.458Z,101605.59
2022-10-22T03:36:49.552Z,101601.31
2022-10-22T03:39:19.377Z,101607.59
2022-10-22T03:41:48.541Z,101604.03
2022-10-22T03:44:18.265Z,101597.13
2022-10-22T03:46:45.706Z,101599.19
2022-10-22T03:49:13.159Z,101592.38
2022-10-22T03:51:40.746Z,101592.44
2022-10-22T03:54:08.280Z,101593.38
2022-10-22T03:56:35.763Z,101600.47
2022-10-22T03:59:04.281Z,101590.03
2022-10-22T04:01:31.877Z,101599.03
2022-10-22T04:03:59.437Z,101596.28
2022-10-22T04:06:27.090Z,101593.94
2022-10-22T04:08:54.808Z,101599.13
2022-10-22T04:11:22.889Z,101594.88
2022-10-22T04:13:50.516Z,101586.03
2022-10-22T04:16:20.756Z,101592.09
2022-10-22T04:18:49.703Z,101593.88
2022-10-22T04:21:18.530Z,101589.69
2022-10-22T04:23:47.715Z,101588.00
2022-10-22T04:26:16.837Z,101584.06
2022-10-22T04:28:45.711Z,101591.97
2022-10-22T04:31:19.051Z,101585.00
2022-10-22T04:33:47.304Z,101582.31
2022-10-22T04:36:18.032Z,101577.91
2022-10-22T04:38:47.719Z,101583.28
2022-10-22T04:41:17.785Z,101577.22
2022-10-22T04:43:46.450Z,101577.31
2022-10-22T04:46:15.927Z,101583.50
2022-10-22T04:48:44.988Z,101581.06
2022-10-22T04:51:15.732Z,101578.44
2022-10-22T04:53:44.084Z,101576.66
2022-10-22T04:56:21.945Z,101582.69
2022-10-22T04:58:55.503Z,101579.25
2022-10-22T05:01:26.072Z,101583.63
2022-10-22T05:03:56.010Z,101582.06
2022-10-22T05:06:24.493Z,101582.13
2022-10-22T05:08:57.807Z,101572.69
2022-10-22T05:11:28.445Z,101578.78
2022-10-22T05:14:00.211Z,101578.09
2022-10-22T05:16:29.818Z,101580.00
2022-10-22T05:18:59.549Z,101582.63
2022-10-22T05:21:27.855Z,101580.97
2022-10-22T05:23:59.981Z,101580.31
2022-10-22T05:26:28.804Z,101575.06
2022-10-22T05:28:56.829Z,101579.53
2022-10-22T05:31:24.723Z,101581.19
2022-10-22T05:33:52.435Z,101582.22
2022-10-22T05:36:21.982Z,101583.22
2022-10-22T05:38:50.356Z,101584.22
2022-10-22T05:41:21.163Z,101581.50
2022-10-22T05:43:49.394Z,101583.28
2022-10-22T05:46:23.057Z,101588.41
2022-10-22T05:48:55.923Z,101588.50
2022-10-22T05:51:24.535Z,101591.88
2022-10-22T05:53:54.617Z,101590.31
2022-10-22T05:56:22.900Z,101588.63
2022-10-22T05:58:51.276Z,101586.78
2022-10-22T06:01:24.506Z,101589.63
2022-10-22T06:04:00.780Z,101585.00
2022-10-22T06:06:44.193Z,101581.31
2022-10-22T06:12:13.789Z,101581.59
2022-10-22T06:14:41.607Z,101582.56
2022-10-22T06:17:09.698Z,101577.28
2022-10-22T06:19:37.518Z,101581.72
2022-10-22T06:22:05.465Z,101586.00
2022-10-22T06:24:32.973Z,101580.66
2022-10-22T06:27:00.525Z,101577.97
2022-10-22T06:29:28.248Z,101576.91
2022-10-22T06:31:55.758Z,101569.03
2022-10-22T06:34:23.406Z,101569.03
2022-10-22T06:36:51.756Z,101571.28
2022-10-22T06:39:19.456Z,101572.16
2022-10-22T06:41:47.144Z,101573.19
2022-10-22T06:44:16.733Z,101572.97
2022-10-22T06:46:44.703Z,101578.09
2022-10-22T06:49:14.624Z,101577.28
2022-10-22T06:51:42.242Z,101573.78
2022-10-22T06:54:10.435Z,101566.31
2022-10-22T06:56:37.925Z,101566.84
2022-10-22T06:59:05.370Z,101567.00
2022-10-22T07:01:34.843Z,101564.25
2022-10-22T07:04:03.562Z,101561.16
2022-10-22T07:06:31.224Z,101563.38
2022-10-22T07:09:00.101Z,101552.97
2022-10-22T07:11:40.844Z,101555.81
2022-10-22T07:14:09.057Z,101550.66
2022-10-22T07:16:36.630Z,101546.75
2022-10-22T07:19:04.964Z,101547.28
2022-10-22T07:21:32.536Z,101549.69
2022-10-22T07:24:00.336Z,101542.69
2022-10-22T07:26:30.945Z,101549.63
2022-10-22T07:29:01.882Z,101545.03
2022-10-22T07:31:29.676Z,101544.66
2022-10-22T07:33:57.864Z,101547.44
2022-10-22T07:36:26.009Z,101549.38
2022-10-22T07:38:57.197Z,101547.34
2022-10-22T07:41:26.383Z,101544.94
2022-10-22T07:43:54.645Z,101545.63
2022-10-22T07:46:23.201Z,101542.63
2022-10-22T07:48:51.265Z,101540.16
2022-10-22T07:51:18.944Z,101539.75
2022-10-22T07:53:46.466Z,101542.03
2022-10-22T07:56:14.382Z,101541.72
2022-10-22T07:58:42.210Z,101538.91
2022-10-22T08:01:10.030Z,101535.72
2022-10-22T08:03:37.689Z,101537.13
2022-10-22T08:06:05.845Z,101537.13
2022-10-22T08:08:34.826Z,101528.81
2022-10-22T08:11:02.483Z,101527.59
2022-10-22T08:13:30.783Z,101526.16
2022-10-22T08:16:00.153Z,101518.94
2022-10-22T08:18:27.959Z,101520.00
2022-10-22T08:20:56.114Z,101522.38
2022-10-22T08:23:26.089Z,101518.31
2022-10-22T08:25:57.762Z,101517.13
2022-10-22T08:28:26.118Z,101516.59
2022-10-22T08:30:53.618Z,101526.91
2022-10-22T08:33:21.264Z,101520.38
2022-10-22T08:35:49.919Z,101520.63
2022-10-22T08:38:18.478Z,101520.78
2022-10-22T08:40:49.888Z,101516.28
2022-10-22T08:43:29.207Z,101520.94
2022-10-22T08:46:11.691Z,101516.59
2022-10-22T08:48:48.144Z,101514.31
2022-10-22T08:51:19.249Z,101507.59
2022-10-22T08:54:04.834Z,101511.25
2022-10-22T08:56:34.906Z,101515.25
2022-10-22T08:59:21.096Z,101507.91
2022-10-22T09:01:53.096Z,101511.69
2022-10-22T09:04:30.366Z,101503.84
2022-10-22T09:07:00.184Z,101506.47
2022-10-22T09:09:33.180Z,101504.44
2022-10-22T09:12:02.534Z,101500.34
2022-10-22T09:14:30.362Z,101488.28
2022-10-22T09:17:29.390Z,101488.69
2022-10-22T09:20:23.858Z,101494.47
2022-10-22T09:23:19.731Z,101478.44
2022-10-22T09:25:49.239Z,101477.50
2022-10-22T09:28:17.534Z,101472.63
2022-10-22T09:30:45.867Z,101467.28
2022-10-22T09:33:20.158Z,101457.81
2022-10-22T09:35:57.688Z,101451.78
2022-10-22T09:38:28.900Z,101461.75
2022-10-22T09:41:00.148Z,101451.25
2022-10-22T09:43:27.917Z,101443.38
2022-10-22T09:45:59.157Z,101434.34
2022-10-22T09:48:34.576Z,101429.84
2022-10-22T09:51:06.741Z,101434.97
2022-10-22T09:53:41.959Z,101436.75
2022-10-22T09:56:20.402Z,101424.88
2022-10-22T09:58:51.308Z,101424.63
2022-10-22T10:01:26.238Z,101408.75
2022-10-22T10:03:53.963Z,101417.13
2022-10-22T10:06:23.453Z,101407.06
2022-10-22T10:08:51.298Z,101409.53
2022-10-22T10:11:45.620Z,101403.53
2022-10-22T10:14:35.492Z,101401.44
2022-10-22T10:17:31.952Z,101396.22
2022-10-22T10:20:17.353Z,101391.44
2022-10-22T10:22:45.009Z,101403.81
2022-10-22T10:25:39.382Z,101388.06
2022-10-22T10:28:19.432Z,101381.81
2022-10-22T10:31:10.996Z,101379.00
2022-10-22T10:33:45.055Z,101382.59
2022-10-22T10:36:27.882Z,101370.69
2022-10-22T10:38:58.350Z,101368.41
2022-10-22T10:41:42.267Z,101368.25
2022-10-22T10:44:31.198Z,101359.13
2022-10-22T10:47:26.128Z,101361.13
2022-10-22T10:50:01.156Z,101359.22
2022-10-22T10:52:34.372Z,101363.31
2022-10-22T10:55:20.366Z,101359.88
2022-10-22T10:58:03.322Z,101360.66
2022-10-22T11:00:40.996Z,101356.00
2022-10-22T11:03:36.598Z,101356.97
2022-10-22T11:06:09.770Z,101339.41
2022-10-22T11:08:46.284Z,101346.28
2022-10-22T11:11:32.861Z,101340.75
2022-10-22T11:14:10.599Z,101335.72
2022-10-22T11:17:16.913Z,101321.75
2022-10-22T11:19:57.868Z,101327.78
2022-10-22T11:22:50.514Z,101322.31
2022-10-22T11:25:33.346Z,101314.56
2022-10-22T11:28:13.211Z,101317.13
2022-10-22T11:30:45.322Z,101314.19
2022-10-22T11:33:18.379Z,101313.25
2022-10-22T11:35:47.184Z,101308.16
2022-10-22T11:38:17.859Z,101305.25
2022-10-22T11:40:50.333Z,101300.03
2022-10-22T11:43:30.196Z,101298.91
2022-10-22T11:46:03.776Z,101294.88
2022-10-22T11:48:37.832Z,101290.31
2022-10-22T11:51:30.003Z,101284.00
2022-10-22T11:53:58.429Z,101277.09
2022-10-22T11:56:27.907Z,101278.81
2022-10-22T11:58:55.807Z,101273.34
2022-10-22T12:01:30.053Z,101272.38
2022-10-22T12:03:57.871Z,101261.25
2022-10-22T12:06:29.393Z,101263.34
2022-10-22T12:09:01.652Z,101261.97
2022-10-22T12:11:37.195Z,101261.97
2022-10-22T12:14:24.392Z,101260.13
2022-10-22T12:16:57.723Z,101249.72
2022-10-22T12:19:46.780Z,101245.19
2022-10-22T12:22:17.907Z,101245.38
2022-10-22T12:24:52.542Z,101249.63
2022-10-22T12:27:23.049Z,101236.41
2022-10-22T12:29:59.082Z,101230.56
2022-10-22T12:32:41.460Z,101238.38
2022-10-22T12:35:16.883Z,101224.22
2022-10-22T12:37:44.658Z,101225.16
2022-10-22T12:40:23.362Z,101235.94
2022-10-22T12:42:56.687Z,101222.72
2022-10-22T12:45:28.332Z,101215.16
2022-10-22T12:48:01.099Z,101206.19
2022-10-22T12:50:37.574Z,101199.13
2022-10-22T12:53:23.088Z,101201.97
2022-10-22T12:55:52.992Z,101200.91
2022-10-22T12:58:26.537Z,101199.78
2022-10-22T13:01:00.880Z,101201.03
2022-10-22T13:03:30.426Z,101199.13
2022-10-22T13:06:14.213Z,101187.81
2022-10-22T13:08:41.943Z,101183.44
2022-10-22T13:11:11.529Z,101188.66
2022-10-22T13:13:38.926Z,101181.56
2022-10-22T13:16:24.564Z,101167.59
2022-10-22T13:18:53.221Z,101169.31
2022-10-22T13:21:28.044Z,101157.03
2022-10-22T13:24:03.550Z,101155.31
2022-10-22T13:26:35.001Z,101159.66
2022-10-22T13:29:10.582Z,101151.00
2022-10-22T13:31:47.129Z,101154.50
2022-10-22T13:34:19.516Z,101156.38
2022-10-22T13:36:48.109Z,101160.13
2022-10-22T13:39:20.916Z,101154.09
2022-10-22T13:41:52.170Z,101149.69
2022-10-22T13:44:20.193Z,101149.06
2022-10-22T13:46:48.883Z,101151.72
2022-10-22T13:49:19.761Z,101152.47
2022-10-22T13:51:47.707Z,101150.03
2022-10-22T13:54:22.465Z,101152.56
2022-10-22T13:56:50.203Z,101142.09
2022-10-22T13:59:21.190Z,101143.97
2022-10-22T14:01:52.243Z,101142.31
2022-10-22T14:04:19.811Z,101143.13
2022-10-22T14:06:47.325Z,101138.81
2022-10-22T14:09:16.209Z,101139.84
2022-10-22T14:11:43.898Z,101133.72
2022-10-22T14:14:14.356Z,101138.16
2022-10-22T14:16:42.162Z,101134.72
2022-10-22T14:19:16.585Z,101129.44
2022-10-22T14:21:44.447Z,101126.25
2022-10-22T14:24:13.382Z,101123.72
2022-10-22T14:26:41.552Z,101124.00
2022-10-22T14:29:11.124Z,101127.59
2022-10-22T14:34:15.756Z,101128.63
2022-10-22T14:36:44.158Z,101121.66
2022-10-22T14:39:13.264Z,101119.38
2022-10-22T14:41:41.871Z,101121.38
2022-10-22T14:44:12.900Z,101113.56
2022-10-22T14:46:42.776Z,101113.63
2022-10-22T14:49:10.487Z,101113.84
2022-10-22T14:51:38.230Z,101112.31
2022-10-22T14:54:05.710Z,101114.28
2022-10-22T14:56:33.338Z,101113.63
2022-10-22T14:59:01.206Z,101114.69
2022-10-22T15:01:28.790Z,101112.03
2022-10-22T15:03:56.362Z,101118.91
2022-10-22T15:06:24.156Z,101112.16
2022-10-22T15:08:52.176Z,101110.50
2022-10-22T15:11:21.342Z,101122.13
2022-10-22T15:13:48.960Z,101121.38
2022-10-22T15:16:16.738Z,101126.84
2022-10-22T15:18:44.936Z,101121.75
2022-10-22T15:21:18.299Z,101124.47
2022-10-22T15:23:46.094Z,101128.91
2022-10-22T15:26:14.147Z,101132.69
2022-10-22T15:28:42.562Z,101126.63
2022-10-22T15:31:13.551Z,101125.03
2022-10-22T15:33:42.714Z,101126.94
2022-10-22T15:36:13.008Z,101131.53
2022-10-22T15:38:40.731Z,101129.06
2022-10-22T15:41:10.410Z,101128.50
2022-10-22T15:43:38.133Z,101131.31
2022-10-22T15:46:17.530Z,101130.56
2022-10-22T15:48:45.841Z,101128.09
2022-10-22T15:51:17.137Z,101125.53
2022-10-22T15:53:51.531Z,101123.16
2022-10-22T15:56:19.550Z,101116.09
2022-10-22T15:58:47.888Z,101116.22
2022-10-22T16:01:15.483Z,101109.97
2022-10-22T16:03:43.207Z,101109.31
2022-10-22T16:06:11.006Z,101113.56
2022-10-22T16:08:38.857Z,101108.47
2022-10-22T16:11:06.456Z,101108.66
2022-10-22T16:13:36.068Z,101108.66
2022-10-22T16:16:08.237Z,101107.03
2022-10-22T16:18:35.974Z,101102.63
2022-10-22T16:21:04.335Z,101107.13
2022-10-22T16:23:31.830Z,101109.00
2022-10-22T16:26:01.980Z,101103.53
2022-10-22T16:28:29.830Z,101106.53
2022-10-22T16:31:02.166Z,101111.94
2022-10-22T16:33:39.163Z,101107.41
2022-10-22T16:36:12.443Z,101106.72
2022-10-22T16:38:40.426Z,101104.19
2022-10-22T16:41:18.522Z,101108.50
2022-10-22T16:43:48.571Z,101108.50
2022-10-22T16:46:19.334Z,101100.59
2022-10-22T16:48:48.883Z,101102.56
2022-10-22T16:51:19.934Z,101100.03
2022-10-22T16:53:47.968Z,101103.78
2022-10-22T16:56:16.774Z,101104.81
2022-10-22T16:58:49.786Z,101114.78
2022-10-22T17:01:19.398Z,101107.19
2022-10-22T17:03:47.218Z,101102.09
2022-10-22T17:06:15.612Z,101104.84
2022-10-22T17:08:43.702Z,101092.41
2022-10-22T17:11:16.952Z,101094.66
2022-10-22T17:13:46.901Z,101090.22
2022-10-22T17:16:17.658Z,101087.75
2022-10-22T17:21:20.573Z,101082.94
2022-10-22T17:23:49.177Z,101080.31
2022-10-22T17:26:20.913Z,101082.34
2022-10-22T17:28:49.498Z,101075.47
2022-10-22T17:31:19.339Z,101084.41
2022-10-22T17:33:50.217Z,101081.75
2022-10-22T17:36:19.075Z,101079.47
2022-10-22T17:38:50.624Z,101077.78
2022-10-22T17:41:20.922Z,101075.38
2022-10-22T17:43:49.078Z,101073.78
2022-10-22T17:46:21.147Z,101071.31
2022-10-22T17:48:54.613Z,101069.28
2022-10-22T17:51:25.142Z,101051.34
2022-10-22T17:53:52.877Z,101050.16
2022-10-22T17:56:23.042Z,101049.22
2022-10-22T17:58:51.714Z,101038.69
2022-10-22T18:01:30.069Z,101036.25
2022-10-22T18:04:07.885Z,101037.44
2022-10-22T18:06:35.724Z,101042.34
2022-10-22T18:09:06.226Z,101047.81
2022-10-22T18:11:36.625Z,101038.25
2022-10-22T18:14:05.179Z,101042.09
2022-10-22T18:16:33.030Z,101033.16
2022-10-22T18:19:01.385Z,101026.91
2022-10-22T18:21:30.606Z,101020.97
2022-10-22T18:24:02.161Z,101020.09
2022-10-22T18:26:30.109Z,101029.09
2022-10-22T18:28:58.163Z,101018.75
2022-10-22T18:31:27.202Z,101023.31
2022-10-22T18:33:55.628Z,101026.81
2022-10-22T18:36:25.786Z,101022.31
2022-10-22T18:38:56.066Z,101019.66
2022-10-22T18:41:24.328Z,101018.22
2022-10-22T18:43:53.989Z,101016.53
2022-10-22T18:46:22.299Z,101022.03
2022-10-22T18:48:53.233Z,101012.59
2022-10-22T18:51:21.034Z,101007.34
2022-10-22T18:54:05.471Z,101001.31
2022-10-22T18:56:40.775Z,100998.50
2022-10-22T18:59:24.192Z,100995.03
2022-10-22T19:01:53.829Z,100988.22
2022-10-22T19:04:22.154Z,100985.25
2022-10-22T19:06:50.410Z,100989.94
2022-10-22T19:09:18.491Z,100982.88
2022-10-22T19:11:46.902Z,100973.19
2022-10-22T19:14:15.081Z,100982.44
2022-10-22T19:16:42.918Z,100980.56
2022-10-22T19:19:14.809Z,100971.00
2022-10-22T19:21:42.784Z,100967.50
2022-10-22T19:24:11.561Z,100961.16
2022-10-22T19:26:39.884Z,100962.44
2022-10-22T19:29:10.966Z,100953.84
2022-10-22T19:31:40.800Z,100955.56
2022-10-22T19:34:09.864Z,100956.31
2022-10-22T19:36:37.340Z,100957.84
2022-10-22T19:39:06.342Z,100945.03
2022-10-22T19:41:34.017Z,100939.75
2022-10-22T19:44:02.028Z,100928.38
2022-10-22T19:46:33.133Z,100931.09
2022-10-22T19:49:02.956Z,100933.13
2022-10-22T19:51:33.931Z,100930.22
2022-10-22T19:54:05.278Z,100929.56
2022-10-22T19:56:34.908Z,100927.88
2022-10-22T19:59:05.217Z,100938.97
2022-10-22T20:01:32.946Z,100944.00
2022-10-22T20:04:01.622Z,100930.16
2022-10-22T20:06:30.330Z,100937.19
2022-10-22T20:08:58.946Z,100937.03
2022-10-22T20:11:29.220Z,100927.59
2022-10-22T20:13:57.590Z,100925.50
2022-10-22T20:16:29.698Z,100930.91
2022-10-22T20:19:05.314Z,100924.91
2022-10-22T20:21:34.952Z,100924.97
2022-10-22T20:24:02.735Z,100932.00
2022-10-22T20:26:31.749Z,100932.00
2022-10-22T20:29:02.536Z,100932.81
2022-10-22T20:31:30.793Z,100929.81
2022-10-22T20:34:01.178Z,100934.06
2022-10-22T20:36:31.114Z,100931.25
2022-10-22T20:39:02.470Z,100931.09
2022-10-22T20:41:30.518Z,100928.63
2022-10-22T20:43:58.242Z,100922.44
2022-10-22T20:46:34.251Z,100920.06
2022-10-22T20:49:07.339Z,100923.72
2022-10-22T20:51:36.244Z,100924.56
2022-10-22T20:54:07.596Z,100926.41
2022-10-22T20:56:40.232Z,100926.41
2022-10-22T20:59:11.063Z,100931.44
2022-10-22T21:01:44.660Z,100917.34
2022-10-22T21:04:12.596Z,100918.69
2022-10-22T21:06:41.806Z,100917.69
2022-10-22T21:09:16.495Z,100916.66
2022-10-22T21:11:44.209Z,100911.31
2022-10-22T21:14:13.607Z,100905.97
2022-10-22T21:16:45.749Z,100907.19
2022-10-22T21:19:13.383Z,100905.97
2022-10-22T21:21:41.281Z,100893.41
2022-10-22T21:24:09.288Z,100882.88
2022-10-22T21:26:38.759Z,100889.84
2022-10-22T21:29:07.114Z,100884.91
2022-10-22T21:31:35.183Z,100888.88
2022-10-22T21:34:03.053Z,100887.84
2022-10-22T21:36:30.487Z,100886.94
2022-10-22T21:38:58.001Z,100881.91
2022-10-22T21:41:25.502Z,100879.22
2022-10-22T21:43:53.016Z,100875.97
2022-10-22T21:46:23.171Z,100873.09
2022-10-22T21:48:55.870Z,100870.03
2022-10-22T21:51:24.269Z,100867.41
2022-10-22T21:56:32.816Z,100874.19
2022-10-22T21:59:01.888Z,100873.34
2022-10-22T22:01:29.359Z,100870.72
2022-10-22T22:03:56.911Z,100862.00
2022-10-22T22:06:29.524Z,100858.41
2022-10-22T22:08:58.770Z,100862.50
2022-10-22T22:11:27.796Z,100857.88
2022-10-22T22:13:55.899Z,100854.59
2022-10-22T22:16:28.413Z,100846.72
2022-10-22T22:18:58.507Z,100848.31
2022-10-22T22:21:27.780Z,100841.50
2022-10-22T22:23:55.622Z,100841.44
2022-10-22T22:26:29.516Z,100833.69
2022-10-22T22:29:00.911Z,100832.75
2022-10-22T22:31:30.782Z,100828.53
2022-10-22T22:34:05.103Z,100826.09
2022-10-22T22:36:38.040Z,100821.56
2022-10-22T22:39:08.356Z,100828.88
2022-10-22T22:41:35.970Z,100820.50
2022-10-22T22:44:03.847Z,100813.88
2022-10-22T22:46:31.479Z,100817.56
2022-10-22T22:48:59.032Z,100822.88
2022-10-22T22:51:26.703Z,100819.41
2022-10-22T22:53:54.200Z,100811.69
2022-10-22T22:56:26.401Z,100811.13
2022-10-22T22:58:54.672Z,100810.50
2022-10-22T23:01:28.497Z,100805.44
2022-10-22T23:03:58.895Z,100808.06
2022-10-22T23:06:29.517Z,100802.97
2022-10-22T23:08:57.809Z,100801.25
2022-10-22T23:11:26.854Z,100799.41
2022-10-22T23:13:56.995Z,100806.44
2022-10-22T23:16:29.303Z,100802.91
2022-10-22T23:18:57.558Z,100803.75
2022-10-22T23:21:28.281Z,100796.78
2022-10-22T23:23:58.627Z,100806.28
2022-10-22T23:26:29.928Z,100811.47
2022-10-22T23:29:16.022Z,100804.50
2022-10-22T23:31:44.197Z,100799.41
2022-10-22T23:34:14.355Z,100798.50
2022-10-22T23:36:42.062Z,100795.88
2022-10-22T23:39:13.233Z,100798.50
2022-10-22T23:41:41.316Z,100803.56
2022-10-22T23:44:09.439Z,100800.28
2022-10-22T23:46:40.461Z,100792.22
2022-10-22T23:49:09.722Z,100792.09
2022-10-22T23:51:38.788Z,100792.03
2022-10-22T23:54:10.189Z,100792.94
2022-10-22T23:56:38.122Z,100782.25
2022-10-22T23:59:06.891Z,100789.22
